Time;durP1;ratioP1;P1;durP2;ratioP2;P2;SDS_P1;SDS_P2;PMS_P1;PMS_P2;Temp;Humidity;BMP_temperature;BMP_pressure;BME280_temperature;BME280_humidity;BME280_pressure;Samples;Min_cycle;Max_cycle;Signal;HPM_P1;HPM_P2
2022/02/11 00:00:36;;;;;;;13.77;7.50;;;-0.80;99.90;;;;;;5075210;28;20031;-78
2022/02/11 00:08:11;;;;;;;15.20;7.47;;;-0.90;99.90;;;;;;5093156;28;20050;-80
2022/02/11 00:10:37;;;;;;;14.38;9.00;;;-0.90;99.90;;;;;;5075140;28;20063;-80
2022/02/11 00:13:03;;;;;;;13.60;8.23;;;-0.90;99.90;;;;;;5093097;28;20095;-80
2022/02/11 00:18:01;;;;;;;16.27;8.57;;;-0.90;99.90;;;;;;5092884;28;20390;-80
2022/02/11 00:20:28;;;;;;;17.60;7.95;;;-0.90;99.90;;;;;;5093067;28;20031;-79
2022/02/11 00:22:53;;;;;;;13.13;7.68;;;-0.90;99.90;;;;;;5074846;28;20024;-77
2022/02/11 00:25:20;;;;;;;16.98;8.48;;;-0.90;99.90;;;;;;5074715;28;20024;-79
2022/02/11 00:33:24;;;;;;;15.02;9.13;;;-1.00;99.90;;;;;;5093131;28;20035;-79
2022/02/11 00:38:38;;;;;;;16.42;8.02;;;-1.00;99.90;;;;;;5092763;28;20031;-79
2022/02/11 00:46:36;;;;;;;16.83;9.45;;;-1.00;99.90;;;;;;5092710;28;20114;-79
2022/02/11 01:02:57;;;;;;;11.35;8.02;;;-1.00;99.90;;;;;;5095554;28;20035;-81
2022/02/11 01:05:23;;;;;;;15.07;9.23;;;-1.00;99.90;;;;;;5074909;28;20039;-78
2022/02/11 01:07:49;;;;;;;17.63;10.43;;;-1.10;99.90;;;;;;5092782;28;20024;-78
2022/02/11 01:10:16;;;;;;;13.32;8.60;;;-1.10;99.90;;;;;;5074392;28;20032;-79
2022/02/11 01:12:42;;;;;;;13.70;8.77;;;-1.20;99.90;;;;;;5092652;28;20023;-78
2022/02/11 01:15:08;;;;;;;16.80;8.85;;;-1.20;99.90;;;;;;5074107;28;20028;-79
2022/02/11 01:17:40;;;;;;;17.50;9.40;;;-1.20;99.90;;;;;;5074245;28;20398;-79
2022/02/11 01:22:58;;;;;;;12.52;7.95;;;-1.10;99.90;;;;;;5092436;28;20032;-78
2022/02/11 01:28:37;;;;;;;16.70;7.47;;;-1.10;99.90;;;;;;5092365;28;20313;-79
2022/02/11 01:38:48;;;;;;;17.30;8.38;;;-1.10;99.90;;;;;;5092154;28;20048;-79
2022/02/11 01:52:13;;;;;;;15.73;7.95;;;-1.20;99.90;;;;;;5092211;28;20032;-79
2022/02/11 02:24:21;;;;;;;12.60;7.53;;;-1.50;99.90;;;;;;5095539;28;20428;-79
2022/02/11 02:34:52;;;;;;;15.60;8.00;;;-1.50;99.90;;;;;;5094992;28;20037;-77
2022/02/11 02:37:21;;;;;;;12.03;7.90;;;-1.50;99.90;;;;;;5094627;28;20114;-80
2022/02/11 02:56:44;;;;;;;24.77;8.32;;;-1.60;99.90;;;;;;5095085;28;20067;-78
2022/02/11 02:59:51;;;;;;;16.83;7.82;;;-1.60;99.90;;;;;;5094524;28;20028;-78
2022/02/11 03:35:09;;;;;;;13.65;7.40;;;-1.60;99.90;;;;;;5093812;28;20099;-79
2022/02/11 03:48:51;;;;;;;12.80;6.40;;;-1.70;99.90;;;;;;5093892;28;20055;-78
2022/02/11 04:56:42;;;;;;;10.13;6.57;;;-1.60;99.90;;;;;;5092481;28;20545;-80
2022/02/11 05:01:52;;;;;;;13.10;7.35;;;-1.60;99.90;;;;;;5092309;28;20432;-78
2022/02/11 05:04:18;;;;;;;10.88;7.03;;;-1.60;99.90;;;;;;5074306;28;20114;-80
2022/02/11 05:06:43;;;;;;;15.25;7.70;;;-1.70;99.90;;;;;;5092586;28;20012;-79
2022/02/11 05:09:09;;;;;;;14.40;7.50;;;-1.70;99.90;;;;;;5092204;28;20032;-78
2022/02/11 05:11:35;;;;;;;12.35;7.88;;;-1.70;99.90;;;;;;5092337;28;20047;-79
2022/02/11 05:14:00;;;;;;;15.63;7.50;;;-1.70;99.90;;;;;;5074198;28;20077;-77
2022/02/11 05:16:26;;;;;;;11.15;7.88;;;-1.70;99.90;;;;;;5073918;28;20460;-79
2022/02/11 05:18:51;;;;;;;17.77;8.93;;;-1.70;99.90;;;;;;5074228;28;20118;-78
2022/02/11 05:21:17;;;;;;;15.63;7.72;;;-1.80;99.90;;;;;;5073956;28;20020;-79
2022/02/11 05:23:43;;;;;;;11.45;6.97;;;-1.80;99.90;;;;;;5092274;28;20102;-79
2022/02/11 05:26:09;;;;;;;18.73;9.00;;;-1.80;99.90;;;;;;5092028;28;20020;-79
2022/02/11 05:28:34;;;;;;;12.10;6.35;;;-1.90;99.90;;;;;;5091968;28;20023;-80
2022/02/11 05:31:00;;;;;;;9.32;6.20;;;-1.90;99.90;;;;;;5073985;28;20024;-80
2022/02/11 05:33:27;;;;;;;10.05;6.30;;;-1.90;99.90;;;;;;5091874;28;20032;-79
2022/02/11 05:35:53;;;;;;;11.20;6.45;;;-1.80;99.90;;;;;;5091931;28;20024;-79
2022/02/11 05:38:18;;;;;;;13.50;8.07;;;-1.90;99.90;;;;;;5092123;28;20040;-79
2022/02/11 05:40:45;;;;;;;12.63;7.00;;;-1.90;99.90;;;;;;5073754;28;20048;-79
2022/02/11 05:43:11;;;;;;;11.80;8.45;;;-1.80;99.90;;;;;;5074072;28;20107;-78
2022/02/11 05:45:37;;;;;;;12.93;7.03;;;-1.80;99.90;;;;;;5094156;28;20584;-79
2022/02/11 05:48:03;;;;;;;22.33;12.85;;;-1.80;99.90;;;;;;5077716;28;20060;-81
2022/02/11 05:50:28;;;;;;;17.30;12.02;;;-1.80;99.90;;;;;;5077659;28;20016;-79
2022/02/11 05:52:54;;;;;;;26.00;13.63;;;-1.80;99.90;;;;;;5095745;28;20035;-79
2022/02/11 05:55:20;;;;;;;51.58;26.45;;;-1.80;99.90;;;;;;5077360;28;20034;-79
2022/02/11 05:57:45;;;;;;;40.83;24.05;;;-1.80;99.90;;;;;;5076786;28;20483;-77
2022/02/11 06:00:11;;;;;;;17.50;9.80;;;-1.80;99.90;;;;;;5078471;28;20058;-80
2022/02/11 06:02:37;;;;;;;16.95;8.82;;;-1.80;99.90;;;;;;5077935;28;20024;-79
2022/02/11 06:05:03;;;;;;;15.48;6.95;;;-1.20;99.90;;;;;;5098530;28;20075;-80
2022/02/11 06:07:29;;;;;;;13.80;6.43;;;-1.20;99.90;;;;;;5096065;28;20020;-78
2022/02/11 06:09:55;;;;;;;10.38;6.30;;;-1.30;99.90;;;;;;5078319;28;20111;-81
2022/02/11 06:12:21;;;;;;;12.60;7.53;;;-1.40;99.90;;;;;;5095996;28;20352;-80
2022/02/11 06:14:46;;;;;;;14.10;8.05;;;-1.40;99.90;;;;;;5095607;28;20027;-78
2022/02/11 06:17:12;;;;;;;16.55;7.78;;;-1.50;99.90;;;;;;5077298;28;20059;-78
2022/02/11 06:19:38;;;;;;;12.60;6.32;;;-1.50;99.90;;;;;;5095365;28;20032;-78
2022/02/11 06:22:03;;;;;;;12.82;6.57;;;-1.60;99.90;;;;;;5077461;28;20390;-79
2022/02/11 06:24:29;;;;;;;8.32;6.15;;;-1.60;99.90;;;;;;5077305;28;20024;-81
2022/02/11 06:26:55;;;;;;;10.20;5.97;;;-1.60;99.90;;;;;;5095422;28;20031;-80
2022/02/11 06:29:20;;;;;;;16.58;6.45;;;-1.60;99.90;;;;;;5095197;28;20028;-79
2022/02/11 06:31:46;;;;;;;12.23;6.57;;;-1.70;99.90;;;;;;5077352;28;20029;-81
2022/02/11 06:34:11;;;;;;;10.80;6.07;;;-1.60;99.90;;;;;;5077320;28;20035;-80
2022/02/11 06:36:37;;;;;;;15.85;7.57;;;-1.70;99.90;;;;;;5095208;28;20024;-80
2022/02/11 06:39:03;;;;;;;23.67;10.15;;;-1.70;99.90;;;;;;5077051;28;20060;-82
2022/02/11 06:41:29;;;;;;;14.52;8.13;;;-1.60;99.90;;;;;;5095159;28;20021;-80
2022/02/11 06:43:54;;;;;;;14.48;8.68;;;-1.60;99.90;;;;;;5077104;28;20024;-80
2022/02/11 06:46:21;;;;;;;14.55;8.45;;;-1.60;99.90;;;;;;5095103;28;20085;-79
2022/02/11 06:48:48;;;;;;;15.40;7.95;;;-1.60;99.90;;;;;;5076902;28;20028;-79
2022/02/11 06:51:14;;;;;;;13.52;9.05;;;-1.50;99.90;;;;;;5077577;28;20024;-79
2022/02/11 06:53:40;;;;;;;19.35;8.68;;;-1.50;99.90;;;;;;5096364;28;20374;-78
2022/02/11 06:56:06;;;;;;;15.95;8.15;;;-1.40;99.90;;;;;;5077033;28;20103;-77
2022/02/11 06:58:32;;;;;;;16.95;8.00;;;-1.40;99.90;;;;;;5077631;28;20039;-76
2022/02/11 07:00:58;;;;;;;14.38;7.82;;;-1.40;99.90;;;;;;5077765;28;20596;-77
2022/02/11 07:03:24;;;;;;;13.80;8.70;;;-1.30;99.90;;;;;;5076576;28;20032;-77
2022/02/11 07:05:51;;;;;;;19.90;9.82;;;-1.20;99.90;;;;;;5076853;28;20355;-78
2022/02/11 07:08:18;;;;;;;15.23;8.38;;;-1.20;99.90;;;;;;5094907;28;20024;-79
2022/02/11 07:10:44;;;;;;;15.98;8.10;;;-1.20;99.90;;;;;;5076463;28;20043;-80
2022/02/11 07:13:13;;;;;;;11.40;6.63;;;-1.10;99.90;;;;;;5094888;28;20027;-78
2022/02/11 07:15:40;;;;;;;16.08;9.18;;;-1.10;99.90;;;;;;5094588;28;20462;-79
2022/02/11 07:18:05;;;;;;;15.85;9.40;;;-1.00;99.90;;;;;;5094411;28;20483;-78
2022/02/11 07:20:31;;;;;;;17.52;8.60;;;-0.90;99.90;;;;;;5075986;28;20034;-79
2022/02/11 07:22:57;;;;;;;14.27;7.18;;;-0.80;99.90;;;;;;5094003;28;20012;-77
2022/02/11 07:25:22;;;;;;;12.32;6.60;;;-0.70;99.90;;;;;;5093920;28;20467;-78
2022/02/11 07:27:48;;;;;;;11.32;6.53;;;-0.70;99.90;;;;;;5094059;28;20024;-81
2022/02/11 07:30:14;;;;;;;23.70;13.43;;;-0.60;99.90;;;;;;5075829;28;20044;-79
2022/02/11 07:32:39;;;;;;;18.25;9.15;;;0.20;99.90;;;;;;5093773;28;20442;-78
2022/02/11 07:35:05;;;;;;;18.42;9.27;;;0.30;99.90;;;;;;5093727;28;20107;-79
2022/02/11 07:37:31;;;;;;;20.63;11.60;;;0.40;99.90;;;;;;5075543;28;20052;-79
2022/02/11 07:39:58;;;;;;;13.70;7.78;;;0.40;99.90;;;;;;5094076;28;20028;-79
2022/02/11 07:42:25;;;;;;;12.43;7.80;;;0.40;99.90;;;;;;5093870;28;20019;-79
2022/02/11 07:44:52;;;;;;;13.77;8.13;;;0.30;99.90;;;;;;5075661;28;20437;-79
2022/02/11 07:47:18;;;;;;;16.13;7.43;;;0.40;99.90;;;;;;5075597;28;20035;-79
2022/02/11 07:49:44;;;;;;;12.38;8.00;;;0.40;99.90;;;;;;5092733;28;20363;-79
2022/02/11 07:52:11;;;;;;;16.52;9.38;;;1.90;99.90;;;;;;5093400;28;20032;-78
2022/02/11 07:54:37;;;;;;;17.13;9.05;;;2.90;99.90;;;;;;5074573;28;20016;-79
2022/02/11 07:57:03;;;;;;;11.45;7.18;;;2.90;99.90;;;;;;5075241;28;20025;-79
2022/02/11 07:59:29;;;;;;;12.75;6.47;;;2.70;99.90;;;;;;5075033;28;20044;-79
2022/02/11 08:01:55;;;;;;;19.50;7.82;;;2.40;99.90;;;;;;5093247;28;20529;-79
2022/02/11 08:04:21;;;;;;;10.07;6.50;;;2.10;99.90;;;;;;5074796;28;20501;-80
2022/02/11 08:06:47;;;;;;;10.98;7.35;;;1.90;99.90;;;;;;5092890;28;20378;-79
2022/02/11 08:09:13;;;;;;;14.60;6.60;;;1.70;99.90;;;;;;5092501;28;20040;-79
2022/02/11 08:11:39;;;;;;;10.35;6.32;;;1.50;99.90;;;;;;5074701;28;20028;-79
2022/02/11 08:14:04;;;;;;;11.55;6.20;;;1.50;99.90;;;;;;5074641;28;20020;-79
2022/02/11 08:16:30;;;;;;;13.77;6.80;;;1.80;99.90;;;;;;5092899;28;20048;-75
2022/02/11 08:18:57;;;;;;;12.23;5.85;;;2.00;99.90;;;;;;5092644;28;20036;-79
2022/02/11 08:21:24;;;;;;;9.38;6.20;;;2.10;99.90;;;;;;5074712;28;20024;-79
2022/02/11 08:23:50;;;;;;;14.70;6.78;;;2.20;99.90;;;;;;5092996;28;20024;-79
2022/02/11 08:26:16;;;;;;;18.65;7.75;;;2.10;99.90;;;;;;5074929;28;20016;-79
2022/02/11 08:28:42;;;;;;;14.07;7.25;;;2.10;99.90;;;;;;5074546;28;20042;-79
2022/02/11 08:31:08;;;;;;;11.40;6.93;;;2.10;99.90;;;;;;5092567;28;20099;-77
2022/02/11 08:33:34;;;;;;;10.88;6.00;;;2.10;99.90;;;;;;5074709;28;20093;-79
2022/02/11 08:36:00;;;;;;;12.02;5.97;;;2.20;99.90;;;;;;5092365;28;20470;-79
2022/02/11 08:38:27;;;;;;;15.55;11.20;;;2.50;99.90;;;;;;5092343;28;20036;-80
2022/02/11 08:40:53;;;;;;;14.27;8.57;;;2.30;99.90;;;;;;5074348;28;20035;-79
2022/02/11 08:43:21;;;;;;;11.95;7.85;;;2.40;99.90;;;;;;5092449;28;20023;-79
2022/02/11 08:45:48;;;;;;;13.30;8.35;;;2.50;99.90;;;;;;5092211;28;20020;-80
2022/02/11 08:48:14;;;;;;;15.30;8.52;;;2.60;99.90;;;;;;5092047;28;20031;-80
2022/02/11 08:50:42;;;;;;;10.82;6.65;;;2.70;99.90;;;;;;5074414;28;20012;-80
2022/02/11 08:53:09;;;;;;;10.82;7.28;;;2.90;99.90;;;;;;5092654;28;20055;-79
2022/02/11 08:55:35;;;;;;;15.45;9.18;;;3.00;99.90;;;;;;5092422;28;20061;-79
2022/02/11 08:58:03;;;;;;;18.00;9.35;;;3.10;99.90;;;;;;5092599;28;20040;-79
2022/02/11 09:00:30;;;;;;;18.40;12.13;;;3.20;99.90;;;;;;5091965;28;20124;-81
2022/02/11 09:02:56;;;;;;;24.10;11.73;;;3.30;99.90;;;;;;5092191;28;20024;-79
2022/02/11 09:05:24;;;;;;;19.52;10.52;;;3.40;99.90;;;;;;5092585;28;20044;-80
2022/02/11 09:08:01;;;;;;;14.27;8.75;;;3.50;99.90;;;;;;5074561;28;20023;-79
2022/02/11 09:10:28;;;;;;;14.80;7.53;;;3.60;99.90;;;;;;5074645;28;20023;-79
2022/02/11 09:12:56;;;;;;;12.43;6.22;;;3.60;99.90;;;;;;5091971;28;20034;-79
2022/02/11 09:15:22;;;;;;;14.30;6.47;;;3.70;99.90;;;;;;5091979;28;20493;-79
2022/02/11 09:17:49;;;;;;;14.18;5.78;;;3.80;99.90;;;;;;5091836;28;20068;-79
2022/02/11 09:20:18;;;;;;;27.50;12.68;;;3.90;99.90;;;;;;5094803;28;20031;-80
2022/02/11 09:22:45;;;;;;;14.85;8.18;;;4.10;99.90;;;;;;5078038;28;20493;-80
2022/02/11 09:25:11;;;;;;;6.38;5.00;;;4.20;99.90;;;;;;5096403;28;20080;-80
2022/02/11 09:27:43;;;;;;;7.22;5.18;;;4.40;99.90;;;;;;5078281;28;20111;-80
2022/02/11 09:30:31;;;;;;;7.53;4.90;;;4.50;99.90;;;;;;5077901;28;20062;-79
2022/02/11 09:32:57;;;;;;;7.70;4.15;;;4.70;99.90;;;;;;5077722;28;20424;-77
2022/02/11 09:35:23;;;;;;;8.95;4.53;;;4.90;99.90;;;;;;5077606;28;20028;-80
2022/02/11 09:37:49;;;;;;;9.32;4.65;;;5.00;99.90;;;;;;5096037;28;20043;-79
2022/02/11 09:40:16;;;;;;;10.98;5.65;;;5.30;99.90;;;;;;5077525;28;20024;-76
2022/02/11 09:42:42;;;;;;;8.82;5.00;;;5.20;99.90;;;;;;5095748;28;20058;-77
2022/02/11 09:45:10;;;;;;;7.22;4.18;;;5.40;99.90;;;;;;5095635;28;20070;-76
2022/02/11 09:47:37;;;;;;;13.45;5.70;;;5.80;99.90;;;;;;5095850;28;20012;-78
2022/02/11 09:50:05;;;;;;;11.00;5.28;;;6.30;99.90;;;;;;5095834;28;20060;-78
2022/02/11 09:52:43;;;;;;;20.30;11.88;;;6.50;99.90;;;;;;5095865;28;20016;-79
2022/02/11 09:57:54;;;;;;;12.07;7.03;;;6.60;99.90;;;;;;5096117;28;20102;-78
2022/02/11 10:00:25;;;;;;;17.77;7.57;;;6.80;99.90;;;;;;5078177;28;20131;-80
2022/02/11 10:02:55;;;;;;;68.60;35.83;;;7.10;99.90;;;;;;5095760;28;20016;-79
2022/02/11 10:05:25;;;;;;;82.45;42.45;;;7.30;99.90;;;;;;5077434;28;20024;-79
2022/02/11 10:07:52;;;;;;;22.75;14.10;;;7.30;99.90;;;;;;5077605;28;20482;-80
2022/02/11 10:10:38;;;;;;;12.68;6.68;;;7.20;99.90;;;;;;5095693;28;20032;-77
2022/02/11 10:13:08;;;;;;;;;;;7.20;99.90;;;;;;5096180;28;20020;-80
2022/02/11 10:15:37;;;;;;;10.82;5.22;;;7.20;99.90;;;;;;5095526;28;19998;-79
2022/02/11 10:18:04;;;;;;;9.95;5.35;;;7.30;99.90;;;;;;5077622;28;20137;-80
2022/02/11 10:20:35;;;;;;;7.75;5.43;;;7.30;99.90;;;;;;5095640;28;20030;-79
2022/02/11 10:23:16;;;;;;;11.63;6.53;;;7.40;99.90;;;;;;5095687;28;20031;-75
2022/02/11 10:25:56;;;;;;;10.40;6.30;;;7.40;99.90;;;;;;5095279;28;20050;-76
2022/02/11 10:28:25;;;;;;;12.82;6.00;;;7.50;99.90;;;;;;5095149;28;20016;-77
2022/02/11 10:31:14;;;;;;;6.63;4.53;;;7.60;99.90;;;;;;5076909;28;20027;-76
2022/02/11 10:33:55;;;;;;;11.07;5.65;;;7.80;99.90;;;;;;5094838;28;20042;-75
2022/02/11 10:36:24;;;;;;;8.30;5.63;;;7.90;99.90;;;;;;5094660;28;20093;-73
2022/02/11 10:39:07;;;;;;;8.52;4.55;;;8.00;99.90;;;;;;5094563;28;20035;-74
2022/02/11 10:41:35;;;;;;;9.20;5.35;;;8.10;99.10;;;;;;5076163;28;20048;-74
2022/02/11 10:44:15;;;;;;;8.30;5.95;;;8.20;98.20;;;;;;5094708;28;20080;-73
2022/02/11 10:46:43;;;;;;;9.63;5.10;;;8.40;99.10;;;;;;5094750;28;20051;-73
2022/02/11 10:49:10;;;;;;;6.55;4.85;;;8.50;98.70;;;;;;5094978;28;20136;-75
2022/02/11 10:51:44;;;;;;;6.45;4.45;;;8.60;98.30;;;;;;5094467;28;20027;-75
2022/02/11 10:54:30;;;;;;;11.88;5.35;;;8.70;98.30;;;;;;5094771;28;20036;-74
2022/02/11 10:56:57;;;;;;;;;;;9.00;98.40;;;;;;5094729;28;20020;-73
2022/02/11 10:59:33;;;;;;;7.97;4.28;;;9.00;97.00;;;;;;5094410;28;19919;-73
2022/02/11 11:02:19;;;;;;;6.35;4.03;;;9.20;98.20;;;;;;5094421;28;20017;-74
2022/02/11 11:04:47;;;;;;;7.15;4.70;;;9.30;97.60;;;;;;5094388;28;20028;-74
2022/02/11 11:07:17;;;;;;;9.93;4.35;;;9.40;97.60;;;;;;5094356;28;20020;-74
2022/02/11 11:09:45;;;;;;;9.63;4.20;;;9.50;95.10;;;;;;5094259;28;20027;-73
2022/02/11 11:12:14;;;;;;;8.15;5.15;;;9.60;94.70;;;;;;5094098;28;20115;-74
2022/02/11 11:14:44;;;;;;;8.73;4.95;;;9.80;95.60;;;;;;5094334;28;20073;-74
2022/02/11 11:17:11;;;;;;;22.20;4.88;;;9.80;95.40;;;;;;5094164;28;20188;-74
2022/02/11 11:19:37;;;;;;;7.38;4.53;;;9.90;95.50;;;;;;5094032;28;20147;-74
2022/02/11 11:22:14;;;;;;;9.25;5.40;;;10.10;94.20;;;;;;5092859;28;20028;-80
2022/02/11 11:24:48;;;;;;;6.78;4.38;;;10.20;92.50;;;;;;5094226;28;20032;-81
2022/02/11 11:27:42;;;;;;;9.48;3.92;;;10.30;92.20;;;;;;5077158;28;20152;-75
2022/02/11 11:30:34;;;;;;;10.15;4.85;;;10.50;91.70;;;;;;5084436;28;20040;-75
2022/02/11 11:33:09;;;;;;;8.57;5.18;;;10.50;91.70;;;;;;5075760;28;20020;-74
2022/02/11 11:35:35;;;;;;;10.38;4.47;;;10.60;91.60;;;;;;5093748;28;20379;-75
2022/02/11 11:38:22;;;;;;;10.43;4.25;;;10.50;91.20;;;;;;5093935;28;20568;-75
2022/02/11 11:40:58;;;;;;;8.43;5.38;;;10.50;90.90;;;;;;5075677;28;20070;-74
2022/02/11 11:43:46;;;;;;;9.02;4.40;;;10.60;91.40;;;;;;5093151;28;20066;-79
2022/02/11 11:46:17;;;;;;;7.93;4.03;;;10.80;90.80;;;;;;5093939;28;20024;-80
2022/02/11 11:49:08;;;;;;;6.18;3.45;;;10.70;91.20;;;;;;5093350;28;20109;-77
2022/02/11 11:51:37;;;;;;;10.02;3.45;;;10.80;91.60;;;;;;5093816;28;20467;-77
2022/02/11 11:56:50;;;;;;;6.68;3.72;;;10.90;92.20;;;;;;5093164;28;20024;-73
2022/02/11 11:59:20;;;;;;;5.35;3.55;;;11.00;91.60;;;;;;5075099;28;20042;-73
2022/02/11 12:02:03;;;;;;;19.20;6.45;;;11.00;91.60;;;;;;5075108;28;20107;-74
2022/02/11 12:04:30;;;;;;;11.57;4.38;;;11.00;91.50;;;;;;5074594;28;20036;-74
2022/02/11 12:07:05;;;;;;;6.10;3.88;;;11.00;91.00;;;;;;5074696;28;20107;-76
2022/02/11 12:09:31;;;;;;;8.32;4.25;;;11.00;91.20;;;;;;5093055;28;20466;-74
2022/02/11 12:12:00;;;;;;;10.05;4.30;;;11.10;91.30;;;;;;5092907;28;20060;-75
2022/02/11 12:14:27;;;;;;;10.23;4.82;;;11.20;91.40;;;;;;5092906;28;20417;-75
2022/02/11 12:16:55;;;;;;;6.75;4.47;;;11.30;90.80;;;;;;5092718;28;20048;-76
2022/02/11 12:19:21;;;;;;;7.43;4.38;;;11.50;90.40;;;;;;5092684;28;20390;-75
2022/02/11 12:21:47;;;;;;;9.15;3.97;;;11.50;90.00;;;;;;5092931;28;20020;-75
2022/02/11 12:30:01;;;;;;;12.07;4.05;;;11.50;87.10;;;;;;5092860;28;20166;-78
2022/02/11 12:32:46;;;;;;;6.07;2.85;;;11.40;86.60;;;;;;5074388;28;20024;-74
2022/02/11 12:35:23;;;;;;;5.47;2.40;;;11.40;85.50;;;;;;5092576;28;20027;-74
2022/02/11 12:37:50;;;;;;;1.92;1.20;;;11.50;84.10;;;;;;5092268;28;20065;-75
2022/02/11 12:40:19;;;;;;;0.60;0.28;;;11.60;78.70;;;;;;5092299;28;20028;-74
2022/02/11 12:42:48;;;;;;;0.28;0.28;;;11.70;73.10;;;;;;5092588;28;20020;-75
2022/02/11 12:45:24;;;;;;;0.70;0.30;;;11.80;72.70;;;;;;5092405;28;20145;-75
2022/02/11 12:47:52;;;;;;;2.58;0.32;;;11.80;72.00;;;;;;5092404;28;20024;-75
2022/02/11 12:50:29;;;;;;;2.83;0.40;;;11.70;73.40;;;;;;5092663;28;20039;-77
2022/02/11 12:52:57;;;;;;;4.45;0.52;;;11.70;74.70;;;;;;5092172;28;20553;-74
2022/02/11 12:55:23;;;;;;;0.15;0.15;;;11.50;73.00;;;;;;5091985;28;20024;-75
2022/02/11 12:57:52;;;;;;;2.40;0.28;;;11.40;72.20;;;;;;5092175;28;20039;-76
2022/02/11 13:00:25;;;;;;;1.98;0.20;;;11.30;71.90;;;;;;5092385;28;20017;-73
2022/02/11 13:02:58;;;;;;;0.20;0.20;;;11.20;72.00;;;;;;5074011;28;20024;-74
2022/02/11 13:05:24;;;;;;;0.20;0.10;;;11.10;72.40;;;;;;5092055;28;20027;-74
2022/02/11 13:08:02;;;;;;;1.85;0.30;;;11.10;71.70;;;;;;5091926;28;20028;-74
2022/02/11 13:10:32;;;;;;;0.22;0.15;;;11.00;72.30;;;;;;5092149;28;20023;-73
2022/02/11 13:13:00;;;;;;;0.10;0.10;;;10.90;70.60;;;;;;5092057;28;20032;-73
2022/02/11 13:15:32;;;;;;;0.20;0.20;;;10.90;69.90;;;;;;5091858;28;20031;-74
2022/02/11 13:18:08;;;;;;;0.30;0.28;;;10.80;69.70;;;;;;5091969;28;20054;-75
2022/02/11 13:20:42;;;;;;;0.20;0.20;;;10.70;71.00;;;;;;5092066;28;20024;-76
2022/02/11 13:23:13;;;;;;;0.43;0.22;;;10.70;70.50;;;;;;5073955;28;20541;-76
2022/02/11 13:25:39;;;;;;;0.20;0.20;;;10.70;72.00;;;;;;5073941;28;20024;-76
2022/02/11 13:28:08;;;;;;;0.45;0.10;;;10.60;71.30;;;;;;5092399;28;20515;-76
2022/02/11 13:30:34;;;;;;;0.20;0.20;;;10.50;70.00;;;;;;5092144;28;20401;-77
2022/02/11 13:33:17;;;;;;;3.33;0.25;;;10.40;68.70;;;;;;5092383;28;20095;-75
2022/02/11 13:35:43;;;;;;;0.20;0.20;;;10.30;70.30;;;;;;5092147;28;20032;-76
2022/02/11 13:38:08;;;;;;;0.15;0.10;;;10.30;69.10;;;;;;5073740;28;20039;-75
2022/02/11 13:40:34;;;;;;;0.38;0.10;;;10.20;68.50;;;;;;5091646;28;20127;-78
2022/02/11 13:43:03;;;;;;;1.67;0.20;;;10.10;68.70;;;;;;5091718;28;20546;-74
2022/02/11 13:45:48;;;;;;;0.22;0.10;;;10.00;69.10;;;;;;5091573;28;20115;-73
2022/02/11 13:48:14;;;;;;;0.75;0.10;;;10.00;68.50;;;;;;5091856;28;20067;-73
2022/02/11 13:51:03;;;;;;;1.85;0.20;;;10.00;68.00;;;;;;5091779;28;20055;-77
2022/02/11 13:53:52;;;;;;;0.47;0.30;;;9.90;68.40;;;;;;5091795;28;20111;-74
2022/02/11 13:56:30;;;;;;;0.77;0.10;;;9.90;69.10;;;;;;5091752;28;20103;-79
2022/02/11 13:59:25;;;;;;;2.33;0.30;;;9.90;69.40;;;;;;5091561;28;20497;-75
2022/02/11 14:01:52;;;;;;;11.60;0.40;;;9.90;69.10;;;;;;5073369;28;20028;-74
2022/02/11 14:04:19;;;;;;;2.42;1.15;;;9.90;68.90;;;;;;5073316;28;20028;-73
2022/02/11 14:06:52;;;;;;;3.25;0.40;;;10.00;68.40;;;;;;5093377;28;20518;-73
2022/02/11 14:09:27;;;;;;;5.35;0.70;;;10.00;68.30;;;;;;5095597;28;20063;-79
2022/02/11 14:11:54;;;;;;;0.30;0.30;;;10.10;76.40;;;;;;5095582;28;20358;-74
2022/02/11 14:14:21;;;;;;;2.20;0.38;;;10.20;72.20;;;;;;5095656;28;20035;-80
2022/02/11 14:16:50;;;;;;;0.80;0.15;;;10.10;67.90;;;;;;5095277;28;20070;-78
2022/02/11 14:19:27;;;;;;;0.35;0.25;;;10.00;69.60;;;;;;5095492;28;20062;-75
2022/02/11 14:22:01;;;;;;;2.08;0.20;;;9.90;69.40;;;;;;5095420;28;20020;-78
2022/02/11 14:24:28;;;;;;;4.40;0.22;;;9.80;69.90;;;;;;5095606;28;20058;-78
2022/02/11 14:26:54;;;;;;;0.47;0.10;;;9.80;69.20;;;;;;5095288;28;20073;-78
2022/02/11 14:29:21;;;;;;;0.28;0.20;;;9.70;69.50;;;;;;5095351;28;20056;-77
2022/02/11 14:31:47;;;;;;;0.30;0.30;;;9.60;69.60;;;;;;5095401;28;20471;-77
2022/02/11 14:34:14;;;;;;;1.85;0.25;;;9.50;69.80;;;;;;5095171;28;20054;-76
2022/02/11 14:36:43;;;;;;;0.20;0.10;;;9.50;69.50;;;;;;5095239;28;20073;-78
2022/02/11 14:39:13;;;;;;;1.50;0.10;;;9.50;70.00;;;;;;5095031;28;20028;-75
2022/02/11 14:41:46;;;;;;;0.20;0.20;;;9.50;69.60;;;;;;5076853;28;20020;-75
2022/02/11 14:44:12;;;;;;;0.20;0.20;;;9.40;69.40;;;;;;5095205;28;20028;-80
2022/02/11 14:46:38;;;;;;;0.10;0.10;;;9.30;70.00;;;;;;5076940;28;20379;-80
2022/02/11 14:49:04;;;;;;;1.65;0.30;;;9.20;69.90;;;;;;5077018;28;20046;-78
2022/02/11 14:51:31;;;;;;;1.48;0.20;;;9.20;69.00;;;;;;5076625;28;20494;-77
2022/02/11 14:53:59;;;;;;;0.32;0.20;;;9.10;68.90;;;;;;5094936;28;20382;-77
2022/02/11 14:56:25;;;;;;;2.28;0.20;;;9.10;68.30;;;;;;5095020;28;20016;-75
2022/02/11 14:58:51;;;;;;;0.43;0.20;;;9.00;67.70;;;;;;5094460;28;20360;-74
2022/02/11 15:01:16;;;;;;;1.90;0.77;;;8.90;68.70;;;;;;5094554;28;20024;-76
2022/02/11 15:03:42;;;;;;;1.33;0.63;;;8.80;67.80;;;;;;5077244;28;20031;-80
2022/02/11 15:06:08;;;;;;;0.73;0.40;;;8.80;65.50;;;;;;5094781;28;20118;-77
2022/02/11 15:08:33;;;;;;;0.68;0.50;;;8.70;67.60;;;;;;5094603;28;20062;-76
2022/02/11 15:11:01;;;;;;;3.10;0.30;;;8.70;64.30;;;;;;5094434;28;20028;-75
2022/02/11 15:13:27;;;;;;;6.25;1.02;;;8.60;64.60;;;;;;5076159;28;20032;-75
2022/02/11 15:15:53;;;;;;;1.17;0.68;;;8.50;64.10;;;;;;5094491;28;20058;-75
2022/02/11 15:18:19;;;;;;;1.48;0.82;;;8.40;63.90;;;;;;5093229;28;20382;-75
2022/02/11 15:20:45;;;;;;;4.90;2.33;;;8.40;64.40;;;;;;5094206;28;20024;-75
2022/02/11 15:23:12;;;;;;;1.75;0.88;;;8.20;64.80;;;;;;5076068;28;20031;-75
2022/02/11 15:25:38;;;;;;;8.48;2.95;;;8.30;62.50;;;;;;5094036;28;20039;-75
2022/02/11 15:28:04;;;;;;;3.20;1.15;;;8.20;62.10;;;;;;5094087;28;20067;-75
2022/02/11 15:30:30;;;;;;;0.77;0.55;;;8.10;61.60;;;;;;5094252;28;20024;-75
2022/02/11 15:32:56;;;;;;;4.70;1.80;;;8.10;62.10;;;;;;5075893;28;20032;-75
2022/02/11 15:35:25;;;;;;;6.32;1.92;;;8.00;60.40;;;;;;5075647;28;20024;-74
2022/02/11 15:37:52;;;;;;;0.75;0.50;;;8.00;59.60;;;;;;5093784;28;20463;-74
2022/02/11 15:40:18;;;;;;;1.50;0.77;;;7.90;60.10;;;;;;5093889;28;20034;-75
2022/02/11 15:42:45;;;;;;;1.85;0.88;;;7.80;59.90;;;;;;5092857;28;20486;-76
2022/02/11 15:45:11;;;;;;;7.22;2.72;;;7.70;59.50;;;;;;5093841;28;20077;-74
2022/02/11 15:47:37;;;;;;;2.17;0.93;;;7.70;57.60;;;;;;5093697;28;20024;-74
2022/02/11 15:50:03;;;;;;;7.72;3.20;;;7.60;58.40;;;;;;5093691;28;20012;-76
2022/02/11 15:52:29;;;;;;;4.07;2.20;;;7.60;58.50;;;;;;5096724;28;20482;-79
2022/02/11 15:54:54;;;;;;;5.28;0.90;;;7.50;58.40;;;;;;5096428;28;20372;-76
2022/02/11 15:57:20;;;;;;;2.33;0.90;;;7.60;57.30;;;;;;5096068;28;20039;-76
2022/02/11 15:59:46;;;;;;;1.73;0.28;;;7.50;57.40;;;;;;5094550;28;20035;-77
2022/02/11 16:02:12;;;;;;;2.72;1.10;;;7.50;57.70;;;;;;5093883;28;20016;-79
2022/02/11 16:04:38;;;;;;;1.25;0.70;;;7.40;57.70;;;;;;5093551;28;20016;-76
2022/02/11 16:07:04;;;;;;;0.10;0.10;;;7.40;57.90;;;;;;5093531;28;20515;-76
2022/02/11 16:09:30;;;;;;;3.08;1.58;;;7.40;57.00;;;;;;5093745;28;20031;-76
2022/02/11 16:11:57;;;;;;;1.77;0.77;;;7.40;57.30;;;;;;5093411;28;20458;-76
2022/02/11 16:14:24;;;;;;;0.43;0.30;;;7.30;57.00;;;;;;5093445;28;20016;-75
2022/02/11 16:16:49;;;;;;;1.13;0.47;;;7.30;58.50;;;;;;5093132;28;20110;-76
2022/02/11 16:19:15;;;;;;;1.05;0.57;;;7.10;57.90;;;;;;5093378;28;20119;-75
2022/02/11 16:21:41;;;;;;;0.32;0.32;;;7.10;56.60;;;;;;5093319;28;20120;-77
2022/02/11 16:24:09;;;;;;;2.33;1.02;;;7.10;57.70;;;;;;5093021;28;20162;-76
2022/02/11 16:26:35;;;;;;;0.30;0.30;;;7.00;58.20;;;;;;5093333;28;20153;-75
2022/02/11 16:29:01;;;;;;;3.10;0.60;;;7.00;59.10;;;;;;5092995;28;20065;-75
2022/02/11 16:31:27;;;;;;;3.92;1.63;;;6.90;59.10;;;;;;5092822;28;20028;-75
2022/02/11 16:33:55;;;;;;;12.60;3.53;;;6.90;59.20;;;;;;5093005;28;20028;-76
2022/02/11 16:36:22;;;;;;;1.08;0.60;;;6.90;59.80;;;;;;5092775;28;20378;-76
2022/02/11 16:38:48;;;;;;;1.75;0.43;;;6.90;58.80;;;;;;5092872;28;20063;-75
2022/02/11 16:41:14;;;;;;;2.00;0.47;;;6.80;59.90;;;;;;5092778;28;20012;-75
2022/02/11 16:43:41;;;;;;;3.22;1.55;;;6.80;61.50;;;;;;5092633;28;20448;-77
2022/02/11 16:46:09;;;;;;;2.85;1.00;;;6.80;61.40;;;;;;5093041;28;20077;-77
2022/02/11 16:48:34;;;;;;;1.92;0.85;;;6.70;62.30;;;;;;5092689;28;20024;-79
2022/02/11 16:51:00;;;;;;;0.70;0.63;;;6.70;62.60;;;;;;5092950;28;20024;-76